createdAt,value
2024-02-14T00:00:29.433Z,1.83
2024-02-14T00:02:57.831Z,3.10
2024-02-14T00:05:26.316Z,2.43
2024-02-14T00:07:56.010Z,3.40
2024-02-14T00:10:24.744Z,2.40
2024-02-14T00:12:53.707Z,2.67
2024-02-14T00:15:22.050Z,1.17
2024-02-14T00:17:50.392Z,2.00
2024-02-14T00:20:18.783Z,1.93
2024-02-14T00:22:46.978Z,1.57
2024-02-14T00:25:20.331Z,1.47
2024-02-14T00:27:49.101Z,2.53
2024-02-14T00:30:17.769Z,3.83
2024-02-14T00:32:46.383Z,1.60
2024-02-14T00:35:14.788Z,3.13
2024-02-14T00:37:43.133Z,3.93
2024-02-14T00:40:12.674Z,6.00
2024-02-14T00:42:42.444Z,2.23
2024-02-14T00:45:11.609Z,2.87
2024-02-14T00:47:40.260Z,1.80
2024-02-14T00:50:09.618Z,1.20
2024-02-14T00:52:38.022Z,0.97
2024-02-14T00:55:06.836Z,3.77
2024-02-14T00:57:35.135Z,1.83
2024-02-14T01:00:07.515Z,2.13
2024-02-14T01:02:35.968Z,3.67
2024-02-14T01:05:05.700Z,2.60
2024-02-14T01:07:34.109Z,2.93
2024-02-14T01:10:02.278Z,1.10
2024-02-14T01:12:30.862Z,3.50
2024-02-14T01:14:59.159Z,1.97
2024-02-14T01:17:29.610Z,1.93
2024-02-14T01:19:59.443Z,1.37
2024-02-14T01:22:28.288Z,0.80
2024-02-14T01:24:56.719Z,1.37
2024-02-14T01:27:25.417Z,1.60
2024-02-14T01:29:55.978Z,2.13
2024-02-14T01:32:24.217Z,1.33
2024-02-14T01:34:54.092Z,1.33
2024-02-14T01:37:22.997Z,1.77
2024-02-14T01:39:51.242Z,1.03
2024-02-14T01:42:19.758Z,3.23
2024-02-14T01:44:47.979Z,1.73
2024-02-14T01:47:16.294Z,2.80
2024-02-14T01:49:45.739Z,2.47
2024-02-14T01:52:16.351Z,4.13
2024-02-14T01:54:45.824Z,2.77
2024-02-14T01:57:14.212Z,2.17
2024-02-14T01:59:42.545Z,2.27
2024-02-14T02:02:10.839Z,2.00
2024-02-14T02:04:39.280Z,1.30
2024-02-14T02:07:07.601Z,1.53
2024-02-14T02:09:37.149Z,1.40
2024-02-14T02:12:09.223Z,2.10
2024-02-14T02:14:37.632Z,1.17
2024-02-14T02:17:09.129Z,1.53
2024-02-14T02:19:37.537Z,2.20
2024-02-14T02:22:07.087Z,2.27
2024-02-14T02:24:36.971Z,1.80
2024-02-14T02:27:05.873Z,3.30
2024-02-14T02:29:34.649Z,2.70
2024-02-14T02:32:02.799Z,3.07
2024-02-14T02:34:31.129Z,6.30
2024-02-14T02:36:59.377Z,2.83
2024-02-14T02:39:27.553Z,1.90
2024-02-14T02:41:58.797Z,0.83
2024-02-14T02:44:27.713Z,1.63
2024-02-14T02:46:56.399Z,8.73
2024-02-14T02:49:24.881Z,1.63
2024-02-14T02:51:53.583Z,2.33
2024-02-14T02:54:24.807Z,1.20
2024-02-14T02:56:53.148Z,1.90
2024-02-14T02:59:23.185Z,3.23
2024-02-14T03:01:51.455Z,4.30
2024-02-14T03:04:20.333Z,1.37
2024-02-14T03:06:48.687Z,2.97
2024-02-14T03:09:19.033Z,0.97
2024-02-14T03:11:48.951Z,2.13
2024-02-14T03:14:17.252Z,3.70
2024-02-14T03:16:47.349Z,1.90
2024-02-14T03:19:15.767Z,1.47
2024-02-14T03:21:44.506Z,0.77
2024-02-14T03:24:13.721Z,1.63
2024-02-14T03:26:43.209Z,1.97
2024-02-14T03:29:11.498Z,3.07
2024-02-14T03:31:39.965Z,3.37
2024-02-14T03:34:09.799Z,1.90
2024-02-14T03:36:39.545Z,2.87
2024-02-14T03:39:07.994Z,1.67
2024-02-14T03:41:36.270Z,2.13
2024-02-14T03:44:05.082Z,1.57
2024-02-14T03:46:36.458Z,2.57
2024-02-14T03:49:05.146Z,3.27
2024-02-14T03:51:34.967Z,1.27
2024-02-14T03:54:03.317Z,2.40
2024-02-14T03:56:33.914Z,2.60
2024-02-14T03:59:02.285Z,1.10
2024-02-14T04:01:32.524Z,2.17
2024-02-14T04:04:01.067Z,1.40
2024-02-14T04:06:33.249Z,2.57
2024-02-14T04:09:03.326Z,1.43
2024-02-14T04:11:31.591Z,3.80
2024-02-14T04:13:59.988Z,1.97
2024-02-14T04:16:28.338Z,3.17
2024-02-14T04:18:57.728Z,2.40
2024-02-14T04:21:26.480Z,1.87
2024-02-14T04:23:54.796Z,1.53
2024-02-14T04:26:25.538Z,5.37
2024-02-14T04:28:53.816Z,0.90
2024-02-14T04:31:22.039Z,0.93
2024-02-14T04:33:53.726Z,1.53
2024-02-14T04:36:24.202Z,1.43
2024-02-14T04:38:53.192Z,3.27
2024-02-14T04:41:22.433Z,1.37
2024-02-14T04:43:52.046Z,3.40
2024-02-14T04:46:20.312Z,6.53
2024-02-14T04:48:49.374Z,0.70
2024-02-14T04:51:17.742Z,2.70
2024-02-14T04:53:45.939Z,1.70
2024-02-14T04:56:14.162Z,0.80
2024-02-14T04:58:42.550Z,1.73
2024-02-14T05:01:12.320Z,4.97
2024-02-14T05:03:39.890Z,1.00
2024-02-14T05:06:08.342Z,1.73
2024-02-14T05:08:36.596Z,5.80
2024-02-14T05:11:05.139Z,1.50
2024-02-14T05:13:33.578Z,0.77
2024-02-14T05:16:05.134Z,1.63
2024-02-14T05:18:35.557Z,3.00
2024-02-14T05:21:03.987Z,2.47
2024-02-14T05:23:32.227Z,0.83
2024-02-14T05:26:00.507Z,2.27
2024-02-14T05:28:29.379Z,2.07
2024-02-14T05:30:58.465Z,1.43
2024-02-14T05:33:26.897Z,1.43
2024-02-14T05:35:56.683Z,2.23
2024-02-14T05:38:24.970Z,2.00
2024-02-14T05:40:53.207Z,1.30
2024-02-14T05:43:21.851Z,4.53
2024-02-14T05:45:50.048Z,3.47
2024-02-14T05:48:18.561Z,1.10
2024-02-14T05:50:46.807Z,1.50
2024-02-14T05:53:16.447Z,2.43
2024-02-14T05:55:44.634Z,1.57
2024-02-14T05:58:13.126Z,1.40
2024-02-14T06:00:41.457Z,3.43
2024-02-14T06:03:09.952Z,4.97
2024-02-14T06:05:38.680Z,5.33
2024-02-14T06:08:07.365Z,1.17
2024-02-14T06:10:40.123Z,2.20
2024-02-14T06:13:08.484Z,10.13
2024-02-14T06:15:37.065Z,2.83
2024-02-14T06:18:05.721Z,5.23
2024-02-14T06:20:33.986Z,3.50
2024-02-14T06:23:05.770Z,1.93
2024-02-14T06:25:35.221Z,1.13
2024-02-14T06:28:05.228Z,1.07
2024-02-14T06:30:34.151Z,1.60
2024-02-14T06:33:04.223Z,0.70
2024-02-14T06:35:33.159Z,2.10
2024-02-14T06:38:04.776Z,3.83
2024-02-14T06:40:34.117Z,0.67
2024-02-14T06:43:02.617Z,1.60
2024-02-14T06:45:32.389Z,1.00
2024-02-14T06:48:00.830Z,1.47
2024-02-14T06:50:30.693Z,0.93
2024-02-14T06:53:01.122Z,2.23
2024-02-14T06:55:30.340Z,1.50
2024-02-14T06:57:58.942Z,1.70
2024-02-14T07:00:27.138Z,1.73
2024-02-14T07:02:56.784Z,4.43
2024-02-14T07:05:25.127Z,3.30
2024-02-14T07:07:53.311Z,2.43
2024-02-14T07:10:21.571Z,2.93
2024-02-14T07:12:49.797Z,1.27
2024-02-14T07:15:18.320Z,1.77
2024-02-14T07:17:46.628Z,3.30
2024-02-14T07:20:18.470Z,9.37
2024-02-14T07:22:48.979Z,1.73
2024-02-14T07:25:17.231Z,3.77
2024-02-14T07:27:47.160Z,2.43
2024-02-14T07:30:15.928Z,6.33
2024-02-14T07:32:44.362Z,4.43
2024-02-14T07:35:14.491Z,3.67
2024-02-14T07:37:44.662Z,3.77
2024-02-14T07:40:16.724Z,9.30
2024-02-14T07:42:46.344Z,4.67
2024-02-14T07:45:15.326Z,1.60
2024-02-14T07:47:43.856Z,6.77
2024-02-14T07:50:12.426Z,6.33
2024-02-14T07:52:46.024Z,5.10
2024-02-14T07:55:14.608Z,5.50
2024-02-14T07:57:44.393Z,3.53
2024-02-14T08:00:15.813Z,7.17
2024-02-14T08:02:44.107Z,7.80
2024-02-14T08:05:12.536Z,5.20
2024-02-14T08:07:40.804Z,5.10
2024-02-14T08:10:11.462Z,4.23
2024-02-14T08:12:39.601Z,3.17
2024-02-14T08:15:08.625Z,7.73
2024-02-14T08:17:38.152Z,3.40
2024-02-14T08:20:07.715Z,3.70
2024-02-14T08:22:36.088Z,5.70
2024-02-14T08:25:04.642Z,5.50
2024-02-14T08:27:34.294Z,6.03
2024-02-14T08:30:02.732Z,3.10
2024-02-14T08:32:31.147Z,5.23
2024-02-14T08:34:59.553Z,3.10
2024-02-14T08:37:27.817Z,3.43
2024-02-14T08:39:56.325Z,5.73
2024-02-14T08:42:24.558Z,3.40
2024-02-14T08:44:54.215Z,4.57
2024-02-14T08:47:22.383Z,4.63
2024-02-14T08:49:50.644Z,5.10
2024-02-14T08:52:19.916Z,3.90
2024-02-14T08:54:49.312Z,7.87
2024-02-14T08:57:19.612Z,4.43
2024-02-14T08:59:49.742Z,5.33
2024-02-14T09:02:19.561Z,4.07
2024-02-14T09:04:48.370Z,6.77
2024-02-14T09:07:17.246Z,3.30
2024-02-14T09:09:47.172Z,4.43
2024-02-14T09:12:15.546Z,7.43
2024-02-14T09:14:43.930Z,5.17
2024-02-14T09:17:12.342Z,9.70
2024-02-14T09:19:42.207Z,9.47
2024-02-14T09:22:10.649Z,6.03
2024-02-14T09:24:38.974Z,5.27
2024-02-14T09:27:07.422Z,4.83
2024-02-14T09:29:38.046Z,2.77
2024-02-14T09:32:07.179Z,4.97
2024-02-14T09:34:35.881Z,2.80
2024-02-14T09:37:07.807Z,4.80
2024-02-14T09:39:38.839Z,5.73
2024-02-14T09:42:11.989Z,6.60
2024-02-14T09:44:40.700Z,3.77
2024-02-14T09:47:11.531Z,5.13
2024-02-14T09:49:42.350Z,3.77
2024-02-14T09:52:14.751Z,8.93
2024-02-14T09:54:43.362Z,5.07
2024-02-14T09:57:13.403Z,2.67
2024-02-14T09:59:43.106Z,4.40
2024-02-14T10:02:11.860Z,5.97
2024-02-14T10:04:40.507Z,7.70
2024-02-14T10:07:10.076Z,5.20
2024-02-14T10:09:45.234Z,6.53
2024-02-14T10:12:13.939Z,4.83
2024-02-14T10:14:44.075Z,5.63
2024-02-14T10:17:20.280Z,4.20
2024-02-14T10:19:58.571Z,1.77
2024-02-14T10:22:27.361Z,11.20
2024-02-14T10:24:57.042Z,2.50
2024-02-14T10:27:28.194Z,4.43
2024-02-14T10:29:58.751Z,3.07
2024-02-14T10:32:27.076Z,3.77
2024-02-14T10:34:55.582Z,3.97
2024-02-14T10:37:28.558Z,11.20
2024-02-14T10:39:59.145Z,2.73
2024-02-14T10:42:27.839Z,1.70
2024-02-14T10:44:57.280Z,3.63
2024-02-14T10:47:32.272Z,2.10
2024-02-14T10:50:04.174Z,0.87
2024-02-14T10:52:35.115Z,2.30
2024-02-14T10:55:07.690Z,7.47
2024-02-14T10:57:36.044Z,3.27
2024-02-14T11:00:09.049Z,2.20
2024-02-14T11:02:38.476Z,2.93
2024-02-14T11:05:08.352Z,1.30
2024-02-14T11:07:37.049Z,2.27
2024-02-14T11:10:10.031Z,1.77
2024-02-14T11:12:40.837Z,1.57
2024-02-14T11:15:13.353Z,1.93
2024-02-14T11:17:42.695Z,1.47
2024-02-14T11:20:19.268Z,2.73
2024-02-14T11:22:57.589Z,1.80
2024-02-14T11:25:35.458Z,5.60
2024-02-14T11:28:15.789Z,6.23
2024-02-14T11:30:44.984Z,3.40
2024-02-14T11:33:19.394Z,0.40
2024-02-14T11:35:50.615Z,3.70
2024-02-14T11:38:19.104Z,2.17
2024-02-14T11:40:49.836Z,1.50
2024-02-14T11:43:19.379Z,1.17
2024-02-14T11:45:50.608Z,3.97
2024-02-14T11:48:19.812Z,4.13
2024-02-14T11:50:48.583Z,2.33
2024-02-14T11:53:19.891Z,6.07
2024-02-14T11:55:50.033Z,3.97
2024-02-14T11:58:19.883Z,3.37
2024-02-14T12:00:50.118Z,0.87
2024-02-14T12:03:20.644Z,2.70
2024-02-14T12:05:52.021Z,0.37
2024-02-14T12:08:21.374Z,1.80
2024-02-14T12:10:51.806Z,6.13
2024-02-14T12:13:22.954Z,1.07
2024-02-14T12:15:53.328Z,0.70
2024-02-14T12:18:23.449Z,1.20
2024-02-14T12:20:56.003Z,1.90
2024-02-14T12:23:27.891Z,4.77
2024-02-14T12:26:04.354Z,0.47
2024-02-14T12:28:33.397Z,0.30
2024-02-14T12:31:01.608Z,1.07
2024-02-14T12:33:31.247Z,3.20
2024-02-14T12:36:00.434Z,0.20
2024-02-14T12:38:28.812Z,0.83
2024-02-14T12:40:58.868Z,0.20
2024-02-14T12:43:27.161Z,0.40
2024-02-14T12:45:55.428Z,0.60
2024-02-14T12:48:28.364Z,1.20
2024-02-14T12:50:57.670Z,0.93
2024-02-14T12:53:25.972Z,0.37
2024-02-14T12:55:54.269Z,0.63
2024-02-14T12:58:24.182Z,0.20
2024-02-14T13:00:52.462Z,0.10
2024-02-14T13:03:21.115Z,0.10
2024-02-14T13:05:49.865Z,0.10
2024-02-14T13:08:19.176Z,0.20
2024-02-14T13:10:48.141Z,0.13
2024-02-14T13:13:16.607Z,1.83
2024-02-14T13:15:46.440Z,0.17
2024-02-14T13:18:15.019Z,1.33
2024-02-14T13:20:45.686Z,0.70
2024-02-14T13:23:15.893Z,0.87
2024-02-14T13:25:44.292Z,0.10
2024-02-14T13:28:12.539Z,0.47
2024-02-14T13:30:40.822Z,3.97
2024-02-14T13:33:12.934Z,0.20
2024-02-14T13:35:41.358Z,0.23
2024-02-14T13:38:10.928Z,0.53
2024-02-14T13:40:39.536Z,0.30
2024-02-14T13:43:07.780Z,2.85
2024-02-14T13:45:44.766Z,0.65
2024-02-14T13:48:14.795Z,0.60
2024-02-14T13:50:44.593Z,2.22
2024-02-14T13:53:12.975Z,0.25
2024-02-14T13:55:41.466Z,0.47
2024-02-14T13:58:15.856Z,1.30
2024-02-14T14:00:44.516Z,0.85
2024-02-14T14:03:14.421Z,0.88
2024-02-14T14:05:42.905Z,1.17
2024-02-14T14:08:11.228Z,1.20
2024-02-14T14:10:39.544Z,0.30
2024-02-14T14:13:07.814Z,0.38
2024-02-14T14:15:36.103Z,0.52
2024-02-14T14:18:04.634Z,0.90
2024-02-14T14:20:34.540Z,1.20
2024-02-14T14:23:04.848Z,0.50
2024-02-14T14:25:33.733Z,0.30
2024-02-14T14:28:05.317Z,2.75
2024-02-14T14:30:35.777Z,0.40
2024-02-14T14:33:04.460Z,0.75
2024-02-14T14:35:35.092Z,0.45
2024-02-14T14:38:04.041Z,2.05
2024-02-14T14:40:32.346Z,0.65
2024-02-14T14:43:00.602Z,0.77
2024-02-14T14:45:29.576Z,1.75
2024-02-14T14:47:58.648Z,0.30
2024-02-14T14:50:27.582Z,0.20
2024-02-14T14:52:57.362Z,0.88
2024-02-14T14:55:26.573Z,1.15
2024-02-14T14:57:57.777Z,0.88
2024-02-14T15:00:26.211Z,0.30
2024-02-14T15:02:56.097Z,0.30
2024-02-14T15:05:24.414Z,0.65
2024-02-14T15:07:53.134Z,0.45
2024-02-14T15:10:22.946Z,0.32
2024-02-14T15:12:51.234Z,0.60
2024-02-14T15:15:21.199Z,3.30
2024-02-14T15:17:49.618Z,0.70
2024-02-14T15:20:17.957Z,3.00
2024-02-14T15:22:46.120Z,3.17
2024-02-14T15:25:14.359Z,4.13
2024-02-14T15:27:55.568Z,2.13
2024-02-14T15:30:50.696Z,1.83
2024-02-14T15:33:25.509Z,0.70
2024-02-14T15:35:54.885Z,3.47
2024-02-14T15:38:24.025Z,0.20
2024-02-14T15:40:58.499Z,1.87
2024-02-14T15:43:28.575Z,3.10
2024-02-14T15:45:57.949Z,0.40
2024-02-14T15:48:29.113Z,0.20
2024-02-14T15:50:58.570Z,1.03
2024-02-14T15:53:28.254Z,2.50
2024-02-14T15:55:56.633Z,2.20
2024-02-14T15:58:26.004Z,3.80
2024-02-14T16:00:56.910Z,4.40
2024-02-14T16:03:25.314Z,3.87
2024-02-14T16:05:53.899Z,6.17
2024-02-14T16:08:23.012Z,5.70
2024-02-14T16:10:51.256Z,5.27
2024-02-14T16:13:19.784Z,2.20
2024-02-14T16:15:47.956Z,0.50
2024-02-14T16:18:17.647Z,3.50
2024-02-14T16:20:45.988Z,2.90
2024-02-14T16:23:14.408Z,2.43
2024-02-14T16:25:42.603Z,0.57
2024-02-14T16:28:10.972Z,0.40
2024-02-14T16:30:39.197Z,1.23
2024-02-14T16:33:07.866Z,2.37
2024-02-14T16:35:37.698Z,1.37
2024-02-14T16:38:06.298Z,0.60
2024-02-14T16:40:36.136Z,9.13
2024-02-14T16:43:04.661Z,1.93
2024-02-14T16:45:33.318Z,0.40
2024-02-14T16:48:02.174Z,2.90
2024-02-14T16:50:32.374Z,0.80
2024-02-14T16:53:02.109Z,4.37
2024-02-14T16:55:30.498Z,1.93
2024-02-14T16:58:02.953Z,5.70
2024-02-14T17:00:31.793Z,3.67
2024-02-14T17:03:08.066Z,0.93
2024-02-14T17:05:42.255Z,2.70
2024-02-14T17:08:12.222Z,1.07
2024-02-14T17:10:40.657Z,0.57
2024-02-14T17:13:10.154Z,0.83
2024-02-14T17:15:38.829Z,1.53
2024-02-14T17:18:09.671Z,4.00
2024-02-14T17:20:38.288Z,0.90
2024-02-14T17:23:07.114Z,2.37
2024-02-14T17:25:38.745Z,0.70
2024-02-14T17:28:07.733Z,1.90
2024-02-14T17:30:36.387Z,2.80
2024-02-14T17:33:06.008Z,1.47
2024-02-14T17:35:34.825Z,7.03
2024-02-14T17:38:03.624Z,1.60
2024-02-14T17:40:32.154Z,4.33
2024-02-14T17:43:02.412Z,10.37
2024-02-14T17:45:30.922Z,3.87
2024-02-14T17:47:59.600Z,5.97
2024-02-14T17:50:28.422Z,8.00
2024-02-14T17:52:56.883Z,4.97
2024-02-14T17:55:25.444Z,6.47
2024-02-14T17:57:55.117Z,4.20
2024-02-14T18:00:25.141Z,1.23
2024-02-14T18:02:53.668Z,1.90
2024-02-14T18:05:22.348Z,1.23
2024-02-14T18:07:50.571Z,1.03
2024-02-14T18:10:20.362Z,0.83
2024-02-14T18:12:49.042Z,3.70
2024-02-14T18:15:18.433Z,1.63
2024-02-14T18:17:49.826Z,7.40
2024-02-14T18:20:18.451Z,1.13
2024-02-14T18:22:46.766Z,1.17
2024-02-14T18:25:15.034Z,1.77
2024-02-14T18:27:43.474Z,2.57
2024-02-14T18:30:13.580Z,1.60
2024-02-14T18:32:43.225Z,1.77
2024-02-14T18:35:13.325Z,0.63
2024-02-14T18:37:42.250Z,3.60
2024-02-14T18:40:12.200Z,4.33
2024-02-14T18:42:40.786Z,8.00
2024-02-14T18:45:10.916Z,2.80
2024-02-14T18:47:39.809Z,6.23
2024-02-14T18:50:08.787Z,2.93
2024-02-14T18:52:39.839Z,4.37
2024-02-14T18:55:09.444Z,6.53
2024-02-14T18:57:38.055Z,8.20
2024-02-14T19:00:11.721Z,5.67
2024-02-14T19:02:44.007Z,6.27
2024-02-14T19:05:12.749Z,5.27
2024-02-14T19:07:42.935Z,4.17
2024-02-14T19:10:12.665Z,3.13
2024-02-14T19:12:41.408Z,2.70
2024-02-14T19:15:11.539Z,3.43
2024-02-14T19:17:41.888Z,3.23
2024-02-14T19:20:11.618Z,4.53
2024-02-14T19:22:41.710Z,3.00
2024-02-14T19:25:10.504Z,5.77
2024-02-14T19:27:39.723Z,5.43
2024-02-14T19:30:09.315Z,2.13
2024-02-14T19:32:40.863Z,3.47
2024-02-14T19:35:10.604Z,3.47
2024-02-14T19:37:39.124Z,1.43
2024-02-14T19:40:12.402Z,4.23
2024-02-14T19:42:41.078Z,5.70
2024-02-14T19:45:11.579Z,2.43
2024-02-14T19:47:40.328Z,1.00
2024-02-14T19:50:10.954Z,2.93
2024-02-14T19:52:39.534Z,3.17
2024-02-14T19:55:11.736Z,4.03
2024-02-14T19:57:40.534Z,3.00
2024-02-14T20:00:10.946Z,1.63
2024-02-14T20:02:40.169Z,1.97
2024-02-14T20:05:10.027Z,2.17
2024-02-14T20:07:38.737Z,2.10
2024-02-14T20:10:11.065Z,3.17
2024-02-14T20:12:39.649Z,2.13
2024-02-14T20:15:10.493Z,4.10
2024-02-14T20:17:41.827Z,6.77
2024-02-14T20:20:11.637Z,2.83
2024-02-14T20:22:40.280Z,4.07
2024-02-14T20:25:12.997Z,2.60
2024-02-14T20:27:42.653Z,3.77
2024-02-14T20:30:14.143Z,4.83
2024-02-14T20:32:44.163Z,3.33
2024-02-14T20:35:14.598Z,4.50
2024-02-14T20:37:44.450Z,6.90
2024-02-14T20:40:15.267Z,7.00
2024-02-14T20:42:44.460Z,12.77
2024-02-14T20:45:14.315Z,5.87
2024-02-14T20:47:44.900Z,7.03
2024-02-14T20:50:15.534Z,7.97
2024-02-14T20:52:44.938Z,4.80
2024-02-14T20:55:15.685Z,3.20
2024-02-14T20:57:44.225Z,8.20
2024-02-14T21:00:16.879Z,1.63
2024-02-14T21:02:45.861Z,2.50
2024-02-14T21:05:15.046Z,5.37
2024-02-14T21:07:43.646Z,4.53
2024-02-14T21:10:12.852Z,3.10
2024-02-14T21:12:42.803Z,2.30
2024-02-14T21:15:11.860Z,2.93
2024-02-14T21:17:40.555Z,3.53
2024-02-14T21:20:10.405Z,4.27
2024-02-14T21:22:39.539Z,4.87
2024-02-14T21:25:08.291Z,3.67
2024-02-14T21:27:37.062Z,3.67
2024-02-14T21:30:09.262Z,3.07
2024-02-14T21:32:38.013Z,4.10
2024-02-14T21:35:13.932Z,2.57
2024-02-14T21:37:43.231Z,4.97
2024-02-14T21:40:13.475Z,2.53
2024-02-14T21:42:42.097Z,3.17
2024-02-14T21:45:13.267Z,3.37
2024-02-14T21:47:42.013Z,3.40
2024-02-14T21:50:11.261Z,4.30
2024-02-14T21:52:48.017Z,3.27
2024-02-14T21:55:16.510Z,4.03
2024-02-14T21:57:44.888Z,8.73
2024-02-14T22:00:16.064Z,8.73
2024-02-14T22:02:45.310Z,7.53
2024-02-14T22:05:14.867Z,10.97
2024-02-14T22:07:43.726Z,5.93
2024-02-14T22:10:12.707Z,5.47
2024-02-14T22:12:42.078Z,6.27
2024-02-14T22:15:11.748Z,5.23
2024-02-14T22:17:42.768Z,5.80
2024-02-14T22:20:13.898Z,7.27
2024-02-14T22:22:43.138Z,2.27
2024-02-14T22:25:11.680Z,3.00
2024-02-14T22:27:40.168Z,1.27
2024-02-14T22:30:09.607Z,2.77
2024-02-14T22:32:54.132Z,2.30
2024-02-14T22:35:23.650Z,2.83
2024-02-14T22:37:52.221Z,4.60
2024-02-14T22:40:20.660Z,5.33
2024-02-14T22:42:50.316Z,8.20
2024-02-14T22:45:19.145Z,9.67
2024-02-14T22:47:49.262Z,9.70
2024-02-14T22:50:17.839Z,12.73
2024-02-14T22:52:46.938Z,13.90
2024-02-14T22:55:17.025Z,10.50
2024-02-14T22:57:45.549Z,9.40
2024-02-14T23:00:17.497Z,7.17
2024-02-14T23:02:46.008Z,4.70
2024-02-14T23:05:21.351Z,7.13
2024-02-14T23:07:50.141Z,7.63
2024-02-14T23:10:18.943Z,8.07
2024-02-14T23:12:48.801Z,7.17
2024-02-14T23:15:19.006Z,17.30
2024-02-14T23:17:47.738Z,16.47
2024-02-14T23:20:17.700Z,15.60
2024-02-14T23:22:46.220Z,15.37
2024-02-14T23:25:14.639Z,13.53
2024-02-14T23:27:46.752Z,11.23
2024-02-14T23:30:16.064Z,9.10
2024-02-14T23:32:44.571Z,8.40
2024-02-14T23:35:13.801Z,10.13
2024-02-14T23:37:44.790Z,10.53
2024-02-14T23:40:13.557Z,11.10
2024-02-14T23:42:43.048Z,11.63
2024-02-14T23:45:12.711Z,9.43
2024-02-14T23:47:41.291Z,9.97
2024-02-14T23:50:11.906Z,6.10
2024-02-14T23:52:40.796Z,4.93
2024-02-14T23:55:11.956Z,2.47
2024-02-14T23:57:40.330Z,5.57
